KESWICK RESERVOIR (KES)

Elevation: 596' · SACRAMENTO R basin · Operator: US Bureau of Reclamation

Provisional data, subject to change.
Query executed Friday at 1:13:51   clock

Select a sensor type for a plot of data.
Note: Reservoir Flows are daily averages.

Earlier

Date RES ELE    STORAGE    RES CHG    OUTFLOW    INFLOW   
 FEET   AF   AF   CFS   CFS  
03/31/2016 583.69 21702 1555 4942 5729
04/01/2016 582.72 21116 -586 4991 4696
04/02/2016 578.53 18703 -2419 4881 3669
04/03/2016 580.94 20065 1368 4919 5611
04/04/2016 581.07 20141 76 4840 4881
04/05/2016 580.90 20042 -99 4728 4681
04/06/2016 582.77 21146 -- 4588 5155
04/07/2016 584.91 22451 1305 4594 5256
04/08/2016 585.25 22664 213 4587 4697
04/09/2016 585.08 22557 -107 4582 4532
04/10/2016 585.74 22972 415 4588 4797
04/11/2016 585.35 22727 -245 4588 4464
04/12/2016 584.93 22464 -263 4612 4483
04/13/2016 583.63 21665 -799 4659 4259
04/14/2016 584.16 21989 324 4645 4808
04/15/2016 583.76 21744 -245 4648 4527
04/16/2016 583.35 21495 -249 4644 4520
04/17/2016 583.73 21726 231 4647 4766
04/18/2016 584.67 22303 577 4648 4943
04/19/2016 584.13 21970 -333 4648 4487
04/20/2016 583.65 21678 -292 4650 4506
04/21/2016 581.72 20522 -1156 4667 4087
04/22/2016 581.49 20387 -135 4669 4602
04/23/2016 582.76 21140 753 4667 5049
04/24/2016 583.11 21350 210 4669 4778
04/25/2016 583.64 21671 321 4669 4835
04/26/2016 584.10 21952 281 4589 4738
04/27/2016 583.70 21708 -244 4689 4569
04/28/2016 -- -- -- -- --
04/29/2016 -- -- -- -- --

Later | Latest

Warning! This data is preliminary and subject to revision.

Show KES Map | Plot KES Data | 1 Month KES Data | Real-Time KES Data | KES Info